Pagina principale
METAR-TAF:

METAR-TAF

Aeroporti :

Aeroporto Internazionale di Hurghada

Hurghada, Egitto

latitudine: 27-09N, longitudine: 033-43E, altezza: 16 m

Osservazione

Il bollettino è stato emesso 1 ora e 1 minuti fa, alle 13:00 UTC
Vento 12 kt da nord/nord-ovest
Temperature 34°C
Umidità 19%
Pressione 1010 hPa
Visibilità 10 km o più
nessuna nube inferiore a 1500 m e nessun cumulonembo

METAR: HEGN 261300Z 34012KT CAVOK 34/07 Q1010 NOSIG

Ora: 16:01 (14:01 UTC)

Previsione

Il bollettino è stato emesso 3 ore e 1 minuti fa, alle 11:00 UTC
Previsione valida dal 26 alle 12 UTC al 27 alle 18 UTC
Vento 10 kt da nord/nord-ovest con raffiche fino a 20 kt
Visibilità 10 km o più
nessuna nube inferiore a 1500 m e nessun cumulonembo

TAF: HEGN 261100Z 2612/2718 34010G20KT CAVOK

Osservazioni e previsioni meteorologiche di più di 4000 aeroporti (messaggi METAR e TAF).

Le stazioni disponibili sono rappresentate dai dischi gialli e rossi sulla carta.

Puntare il mouse per vedere il nome della stazione.

Clicca sopra per visualizzare le osservazioni e previsioni meteorologiche.

Per cambiare la mappa : fare clic sui pulsanti verdi con una croce nera per ingrandire, il pulsante verde con un trattino per diminuire, o sulla freccia verde per le mappe adiacenti.


METAR-TAF: